Time;durP1;ratioP1;P1;durP2;ratioP2;P2;SDS_P1;SDS_P2;PMS_P1;PMS_P2;Temp;Humidity;BMP_temperature;BMP_pressure;BME280_temperature;BME280_humidity;BME280_pressure;Samples;Min_cycle;Max_cycle;Signal;HPM_P1;HPM_P2
2022/08/30 00:01:27;;;;;;;;;50.80;42.80;;;;;23.61;46.56;99128.03;6242716;27;97445;-57
2022/08/30 00:04:31;;;;;;;;;48.00;41.00;;;;;23.60;46.45;99120.91;6261673;27;97470;-58
2022/08/30 00:07:34;;;;;;;;;44.67;37.67;;;;;23.61;46.27;99125.28;6251298;27;97193;-58
2022/08/30 00:10:39;;;;;;;;;49.40;42.00;;;;;23.62;46.11;99130.50;6257814;27;98976;-57
2022/08/30 00:13:45;;;;;;;;;52.00;43.75;;;;;23.61;46.40;99128.84;6240136;27;96300;-55
2022/08/30 00:16:49;;;;;;;;;47.75;40.25;;;;;23.61;46.26;99126.09;6245882;27;97541;-55
2022/08/30 00:19:54;;;;;;;;;44.20;38.00;;;;;23.60;46.26;99115.41;6264161;27;98667;-55
2022/08/30 00:22:58;;;;;;;;;50.00;42.00;;;;;23.59;46.06;99125.59;6260441;27;97064;-55
2022/08/30 00:26:02;;;;;;;;;47.40;40.40;;;;;23.54;46.18;99117.44;6253114;27;97452;-55
2022/08/30 00:29:05;;;;;;;;;48.25;41.00;;;;;23.54;45.90;99127.63;6263835;27;96531;-56
2022/08/30 00:32:11;;;;;;;;;46.80;39.80;;;;;23.47;45.53;99130.75;6264021;27;98097;-57
2022/08/30 00:35:17;;;;;;;;;45.00;38.60;;;;;23.41;45.68;99131.13;6263290;27;97109;-56
2022/08/30 00:38:21;;;;;;;;;45.00;38.40;;;;;23.29;45.78;99115.88;6248933;27;96882;-56
2022/08/30 00:41:25;;;;;;;;;45.00;39.00;;;;;23.32;45.49;99130.94;6261797;27;96654;-58
2022/08/30 00:44:28;;;;;;;;;45.00;39.00;;;;;23.25;45.59;99128.59;6263515;27;97003;-55
2022/08/30 00:47:33;;;;;;;;;47.00;39.50;;;;;23.22;45.52;99125.59;6259643;27;96340;-57
2022/08/30 00:50:41;;;;;;;;;45.00;38.67;;;;;23.18;45.62;99122.63;6237427;27;96904;-58
2022/08/30 00:53:48;;;;;;;;;47.00;40.00;;;;;23.16;45.61;99130.41;6260623;27;97474;-56
2022/08/30 00:56:52;;;;;;;;;45.00;38.40;;;;;23.07;45.41;99131.31;6238671;27;97054;-56
2022/08/30 00:59:56;;;;;;;;;42.50;37.25;;;;;23.10;45.62;99126.06;6240561;27;97484;-56
2022/08/30 01:03:01;;;;;;;;;48.40;40.40;;;;;23.06;45.73;99124.22;6239577;27;96673;-58
2022/08/30 01:06:06;;;;;;;;;45.40;38.80;;;;;23.07;45.63;99123.09;6262381;27;97024;-58
2022/08/30 01:09:10;;;;;;;;;44.60;38.00;;;;;23.06;45.94;99130.53;6261375;27;97076;-56
2022/08/30 01:12:13;;;;;;;;;46.00;40.00;;;;;23.03;45.64;99125.63;6244353;27;97665;-56
2022/08/30 01:15:19;;;;;;;;;41.00;35.80;;;;;23.04;45.95;99118.19;6239005;28;96810;-58
2022/08/30 01:18:25;;;;;;;;;44.25;38.50;;;;;23.07;46.28;99112.91;6257811;27;96892;-55
2022/08/30 01:21:36;;;;;;;;;40.50;35.00;;;;;23.01;46.31;99099.53;6262156;27;97736;-55
2022/08/30 01:24:42;;;;;;;;;43.60;38.00;;;;;23.10;46.76;99109.56;6254753;27;97353;-55
2022/08/30 01:27:55;;;;;;;;;45.00;38.75;;;;;23.14;46.85;99109.78;6250425;27;99137;-55
2022/08/30 01:30:58;;;;;;;;;42.00;36.00;;;;;23.15;46.67;99108.69;6260370;27;97128;-58
2022/08/30 01:34:02;;;;;;;;;48.50;41.00;;;;;23.16;46.46;99102.88;6259872;27;97538;-57
2022/08/30 01:37:06;;;;;;;;;45.75;39.50;;;;;23.18;46.58;99114.38;6251664;27;96719;-54
2022/08/30 01:40:16;;;;;;;;;47.20;40.00;;;;;23.19;46.63;99118.78;6248789;27;97245;-57
2022/08/30 01:43:19;;;;;;;;;46.50;40.00;;;;;23.19;46.83;99120.72;6239033;27;97170;-56
2022/08/30 01:46:26;;;;;;;;;49.20;41.80;;;;;23.19;46.54;99116.03;6242991;27;96474;-56
2022/08/30 01:49:30;;;;;;;;;48.50;41.00;;;;;23.17;46.29;99112.75;6247608;27;97475;-56
2022/08/30 01:52:33;;;;;;;;;45.00;39.00;;;;;23.21;46.38;99113.00;6237401;27;97391;-56
2022/08/30 01:55:39;;;;;;;;;46.00;40.00;;;;;23.19;46.12;99110.53;6237477;27;96417;-55
2022/08/30 01:58:43;;;;;;;;;45.00;39.00;;;;;23.11;46.29;99093.91;6237047;27;97382;-57
2022/08/30 02:01:46;;;;;;;;;40.60;35.60;;;;;22.88;45.93;99068.91;6242388;27;97080;-58
2022/08/30 02:04:50;;;;;;;;;40.80;36.00;;;;;23.02;46.00;99092.94;6237353;27;97195;-58
2022/08/30 02:07:54;;;;;;;;;39.00;35.00;;;;;23.13;46.20;99110.91;6255896;27;96976;-55
2022/08/30 02:11:00;;;;;;;;;40.00;35.00;;;;;23.11;45.71;99105.72;6258812;27;97421;-56
2022/08/30 02:14:03;;;;;;;;;45.60;39.00;;;;;23.08;45.81;99109.03;6261629;27;96887;-55
2022/08/30 02:17:09;;;;;;;;;44.00;37.60;;;;;23.05;45.85;99103.34;6254580;27;96644;-57
2022/08/30 02:20:13;;;;;;;;;49.20;42.00;;;;;23.06;45.83;99108.53;6253663;27;96802;-55
2022/08/30 02:23:16;;;;;;;;;35.00;32.00;;;;;22.98;46.31;99095.44;6236516;27;96665;-56
2022/08/30 02:26:22;;;;;;;;;36.00;33.00;;;;;23.07;46.46;99101.91;6240513;27;96839;-58
2022/08/30 02:29:26;;;;;;;;;48.40;41.40;;;;;23.05;46.70;99106.91;6246577;27;98552;-56
2022/08/30 02:32:29;;;;;;;;;42.60;36.40;;;;;23.09;46.62;99104.38;6244588;27;98367;-56
2022/08/30 02:35:32;;;;;;;;;42.80;36.80;;;;;22.94;46.77;99074.34;6246867;27;97421;-56
2022/08/30 02:38:36;;;;;;;;;49.00;41.40;;;;;22.85;46.69;99069.53;6237723;27;97643;-57
2022/08/30 02:41:42;;;;;;;;;44.50;38.00;;;;;23.08;46.78;99102.72;6237243;27;97062;-57
2022/08/30 02:44:46;;;;;;;;;44.00;38.00;;;;;23.07;46.71;99110.16;6236282;27;96591;-58
2022/08/30 02:47:49;;;;;;;;;44.00;38.33;;;;;23.07;46.46;99107.41;6245568;27;97472;-55
2022/08/30 02:50:53;;;;;;;;;46.00;39.50;;;;;23.06;46.75;99097.53;6236963;27;97430;-56
2022/08/30 02:53:56;;;;;;;;;45.40;38.40;;;;;22.93;46.72;99076.28;6238807;27;96777;-55
2022/08/30 02:57:03;;;;;;;;;41.60;36.00;;;;;23.03;46.34;99089.03;6243212;27;96844;-58
2022/08/30 03:00:09;;;;;;;;;45.00;38.25;;;;;23.04;46.39;99096.19;6249068;27;96816;-54
2022/08/30 03:03:12;;;;;;;;;45.50;38.75;;;;;23.03;46.32;99092.63;6246145;27;96585;-57
2022/08/30 03:06:17;;;;;;;;;43.75;38.00;;;;;23.01;46.15;99097.63;6240269;27;98116;-57
2022/08/30 03:09:21;;;;;;;;;44.00;37.60;;;;;23.00;45.96;99101.47;6238596;27;96874;-56
2022/08/30 03:12:26;;;;;;;;;40.60;35.80;;;;;22.83;46.44;99080.00;6247622;27;97447;-57
2022/08/30 03:15:29;;;;;;;;;44.75;37.75;;;;;22.94;45.99;99097.16;6245900;27;97392;-58
2022/08/30 03:18:32;;;;;;;;;45.00;39.00;;;;;22.93;45.83;99105.69;6245467;27;97885;-55
2022/08/30 03:21:36;;;;;;;;;47.00;40.50;;;;;22.90;45.91;99104.38;6243752;27;97971;-56
2022/08/30 03:24:40;;;;;;;;;45.20;39.00;;;;;22.79;46.09;99098.19;6249826;27;97333;-56
2022/08/30 03:27:45;;;;;;;;;46.00;39.00;;;;;22.81;45.90;99101.47;6234286;28;97111;-55
2022/08/30 03:30:48;;;;;;;;;44.00;38.00;;;;;22.80;46.25;99101.75;6243474;27;98084;-55
2022/08/30 03:33:52;;;;;;;;;44.75;38.50;;;;;22.76;46.12;99101.53;6257235;27;97514;-56
2022/08/30 03:36:57;;;;;;;;;45.00;38.40;;;;;22.75;46.49;99108.16;6261338;27;97913;-57
2022/08/30 03:40:01;;;;;;;;;47.25;40.25;;;;;22.73;46.26;99104.03;6265464;27;96872;-56
2022/08/30 03:43:06;;;;;;;;;47.25;39.00;;;;;22.70;46.21;99107.38;6252406;27;96829;-57
2022/08/30 03:46:11;;;;;;;;;43.00;37.50;;;;;22.68;46.53;99112.31;6237855;27;96998;-57
2022/08/30 03:49:15;;;;;;;;;49.00;41.00;;;;;22.69;46.29;99106.53;6236994;28;97503;-56
2022/08/30 03:52:18;;;;;;;;;50.40;43.00;;;;;22.67;46.57;99111.53;6238581;27;96956;-57
2022/08/30 03:55:21;;;;;;;;;41.80;36.20;;;;;22.66;46.47;99122.81;6262514;27;96814;-56
2022/08/30 03:58:26;;;;;;;;;42.60;37.00;;;;;22.64;46.53;99117.59;6253688;27;96670;-55
2022/08/30 04:01:29;;;;;;;;;37.00;33.00;;;;;22.63;46.75;99126.13;6251835;27;97522;-57
2022/08/30 04:04:33;;;;;;;;;31.80;30.60;;;;;22.64;46.63;99127.78;6248818;27;96925;-55
2022/08/30 04:07:36;;;;;;;;;46.60;39.60;;;;;22.67;46.93;99132.69;6249258;27;98700;-56
2022/08/30 04:10:40;;;;;;;;;49.60;42.60;;;;;22.70;46.57;99135.69;6246098;27;97055;-57
2022/08/30 04:13:45;;;;;;;;;45.60;39.00;;;;;22.71;46.18;99136.53;6246303;27;97032;-56
2022/08/30 04:16:49;;;;;;;;;47.00;40.00;;;;;22.69;45.96;99130.47;6249672;27;98909;-56
2022/08/30 04:19:53;;;;;;;;;46.20;39.80;;;;;22.78;45.76;99134.22;6246128;27;96671;-56
2022/08/30 04:22:56;;;;;;;;;39.60;35.00;;;;;22.78;45.92;99143.28;6257332;27;97614;-57
2022/08/30 04:26:00;;;;;;;;;52.40;44.40;;;;;22.73;45.86;99143.34;6260757;27;97615;-57
2022/08/30 04:29:04;;;;;;;;;52.20;44.20;;;;;22.74;45.75;99142.25;6247165;27;96437;-57
2022/08/30 04:32:08;;;;;;;;;45.25;38.50;;;;;22.75;45.80;99145.81;6267512;27;96758;-57
2022/08/30 04:35:13;;;;;;;;;44.00;37.60;;;;;22.79;45.96;99144.91;6248756;27;97406;-57
2022/08/30 04:38:18;;;;;;;;;49.40;41.80;;;;;22.84;45.87;99146.78;6244560;27;97024;-56
2022/08/30 04:41:24;;;;;;;;;44.00;38.00;;;;;22.90;45.99;99148.34;6250498;27;97416;-57
2022/08/30 04:44:30;;;;;;;;;46.20;39.40;;;;;22.95;46.18;99145.53;6241645;27;97398;-56
2022/08/30 04:47:33;;;;;;;;;43.60;37.40;;;;;23.01;45.82;99151.78;6244976;27;97077;-57
2022/08/30 04:50:36;;;;;;;;;41.00;36.00;;;;;23.02;45.75;99158.94;6238269;27;96814;-56
2022/08/30 04:53:47;;;;;;;;;51.00;43.00;;;;;23.06;45.89;99160.78;6251727;27;97525;-60
2022/08/30 04:56:50;;;;;;;;;45.50;39.00;;;;;22.94;45.69;99143.06;6261390;27;96916;-59
2022/08/30 04:59:55;;;;;;;;;49.60;42.20;;;;;23.11;45.50;99162.66;6254216;27;97077;-56
2022/08/30 05:02:59;;;;;;;;;37.00;34.00;;;;;23.15;45.41;99159.00;6248517;27;97011;-59
2022/08/30 05:06:02;;;;;;;;;44.60;37.60;;;;;23.20;45.48;99169.94;6244611;27;97419;-57
2022/08/30 05:09:05;;;;;;;;;47.00;40.00;;;;;23.24;45.30;99167.41;6241311;27;97077;-56
2022/08/30 05:12:09;;;;;;;;;47.60;41.00;;;;;23.24;45.48;99170.97;6250514;27;96685;-57
2022/08/30 05:15:16;;;;;;;;;38.00;33.80;;;;;23.28;45.51;99174.75;6241159;27;96855;-58
2022/08/30 05:18:19;;;;;;;;;48.40;41.60;;;;;23.33;45.39;99168.34;6244678;27;98633;-60
2022/08/30 05:21:26;;;;;;;;;45.50;38.50;;;;;23.42;45.28;99174.00;6246254;27;98338;-57
2022/08/30 05:24:30;;;;;;;;;41.40;36.20;;;;;23.40;45.18;99157.81;6247617;27;97547;-56
2022/08/30 05:27:34;;;;;;;;;41.40;36.20;;;;;23.58;45.01;99184.50;6256613;27;98628;-56
2022/08/30 05:30:41;;;;;;;;;38.80;34.80;;;;;23.66;45.09;99183.81;6237573;27;97393;-58
2022/08/30 05:33:44;;;;;;;;;34.00;32.20;;;;;23.74;44.94;99182.34;6262296;27;98088;-57
2022/08/30 05:36:48;;;;;;;;;51.50;44.00;;;;;23.83;44.91;99187.97;6261454;27;96553;-57
2022/08/30 05:39:51;;;;;;;;;41.00;36.00;;;;;23.91;44.42;99187.25;6252981;27;98014;-56
2022/08/30 05:42:54;;;;;;;;;47.80;39.80;;;;;23.99;44.42;99184.66;6254329;27;97039;-59
2022/08/30 05:46:05;;;;;;;;;47.00;40.00;;;;;24.08;44.27;99185.59;6240468;27;97352;-58
2022/08/30 05:49:09;;;;;;;;;44.33;38.00;;;;;24.14;43.70;99180.81;6237792;27;99356;-56
2022/08/30 05:52:14;;;;;;;;;38.80;34.20;;;;;24.20;43.97;99184.28;6235976;27;97465;-57
2022/08/30 05:55:18;;;;;;;;;38.40;34.20;;;;;24.25;43.62;99184.22;6233962;27;97437;-58
2022/08/30 05:58:21;;;;;;;;;34.50;32.50;;;;;24.28;43.74;99184.44;6233235;27;99436;-57
2022/08/30 06:01:30;;;;;;;;;42.80;36.80;;;;;24.35;43.59;99192.28;6238576;27;96857;-57
2022/08/30 06:04:35;;;;;;;;;36.40;32.60;;;;;24.39;43.60;99196.88;6240042;27;97049;-55
2022/08/30 06:07:38;;;;;;;;;41.80;36.20;;;;;24.49;43.53;99196.69;6239181;27;98078;-54
2022/08/30 06:10:42;;;;;;;;;36.00;33.00;;;;;24.60;43.66;99195.38;6239382;27;97527;-59
2022/08/30 06:13:46;;;;;;;;;42.50;37.00;;;;;24.72;43.34;99185.78;6245026;27;98187;-61
2022/08/30 06:16:52;;;;;;;;;33.75;31.75;;;;;24.80;43.10;99196.06;6243709;27;97495;-57
2022/08/30 06:19:55;;;;;;;;;37.50;33.00;;;;;24.90;43.16;99198.66;6238176;27;97556;-58
2022/08/30 06:22:59;;;;;;;;;43.00;37.00;;;;;24.99;43.19;99197.63;6255237;27;96970;-59
2022/08/30 06:26:04;;;;;;;;;44.80;37.40;;;;;25.11;42.91;99202.63;6240636;27;97427;-57
2022/08/30 06:29:09;;;;;;;;;39.00;34.00;;;;;25.24;42.79;99204.53;6252357;27;97490;-56
2022/08/30 06:32:14;;;;;;;;;41.40;35.20;;;;;25.35;42.44;99196.84;6259024;27;97523;-57
2022/08/30 06:35:17;;;;;;;;;55.20;46.40;;;;;25.47;41.96;99199.84;6260075;27;97447;-56
2022/08/30 06:38:20;;;;;;;;;34.80;32.60;;;;;25.59;41.60;99204.88;6275603;27;97470;-60
2022/08/30 06:41:26;;;;;;;;;41.25;35.50;;;;;25.65;41.29;99215.50;6237128;27;97573;-58
2022/08/30 06:44:29;;;;;;;;;33.33;30.33;;;;;25.76;41.14;99216.84;6242883;27;97152;-63
2022/08/30 06:47:34;;;;;;;;;40.00;35.20;;;;;25.90;41.22;99210.47;6252380;27;97144;-60
2022/08/30 06:50:38;;;;;;;;;50.50;42.75;;;;;26.05;41.37;99213.63;6247290;27;97468;-59
2022/08/30 06:53:41;;;;;;;;;46.67;39.67;;;;;26.22;41.11;99213.78;6257052;27;97937;-59
2022/08/30 06:56:45;;;;;;;;;45.40;38.40;;;;;26.39;40.82;99221.34;6256152;27;97380;-60
2022/08/30 07:00:01;;;;;;;;;53.00;44.00;;;;;26.55;40.48;99214.28;6248219;27;96914;-61
2022/08/30 07:03:05;;;;;;;;;44.60;38.00;;;;;26.77;40.35;99215.34;6259382;27;97346;-59
2022/08/30 07:06:10;;;;;;;;;43.25;37.00;;;;;26.96;40.04;99202.91;6251920;27;97492;-59
2022/08/30 07:09:14;;;;;;;;;48.60;40.60;;;;;27.15;39.54;99213.69;6256095;27;97430;-59
2022/08/30 07:12:17;;;;;;;;;37.25;33.00;;;;;27.31;39.30;99208.50;6239900;28;96982;-55
2022/08/30 07:15:21;;;;;;;;;35.60;32.60;;;;;27.48;38.99;99214.03;6240900;27;96774;-58
2022/08/30 07:22:02;;;;;;;;;41.40;35.60;;;;;27.82;38.33;99207.72;6165000;28;98309;-60
2022/08/30 07:25:07;;;;;;;;;35.60;32.60;;;;;27.99;38.47;99218.78;6164046;28;97268;-60
2022/08/30 07:28:10;;;;;;;;;38.00;34.80;;;;;28.19;37.96;99217.31;6167684;28;97445;-57
2022/08/30 07:31:16;;;;;;;;;43.00;36.80;;;;;28.38;37.59;99217.75;6162663;28;97916;-57
2022/08/30 07:34:23;;;;;;;;;29.75;28.75;;;;;28.56;37.10;99215.72;6162510;28;97648;-58
2022/08/30 07:37:29;;;;;;;;;26.40;26.40;;;;;28.73;36.58;99212.91;6186592;28;97565;-58
2022/08/30 07:40:32;;;;;;;;;33.80;30.20;;;;;28.84;35.83;99212.19;6186810;28;97482;-59
2022/08/30 07:43:38;;;;;;;;;27.60;27.00;;;;;28.93;35.96;99212.13;6187299;28;96994;-58
2022/08/30 07:46:41;;;;;;;;;41.00;36.00;;;;;29.04;35.83;99215.34;6178991;28;98121;-59
2022/08/30 07:49:47;;;;;;;;;37.60;33.20;;;;;29.12;35.63;99207.00;6173734;28;96875;-60
2022/08/30 07:52:50;;;;;;;;;38.00;33.00;;;;;29.29;35.88;99209.63;6202390;28;96651;-62
2022/08/30 07:55:54;;;;;;;;;37.00;33.00;;;;;29.52;35.82;99214.88;6237961;27;99517;-58
2022/08/30 07:58:57;;;;;;;;;29.60;27.60;;;;;29.68;35.65;99208.38;6239083;27;97010;-59
2022/08/30 08:02:03;;;;;;;;;45.40;38.40;;;;;29.84;35.25;99219.69;6254720;27;97550;-58
2022/08/30 08:05:10;;;;;;;;;38.00;35.00;;;;;30.01;35.18;99215.94;6240684;27;96877;-58
2022/08/30 08:08:20;;;;;;;;;34.25;32.00;;;;;30.26;35.19;99217.66;6263686;27;96932;-59
2022/08/30 08:11:26;;;;;;;;;33.40;31.40;;;;;30.47;34.48;99224.00;6245382;27;97056;-59
2022/08/30 08:14:35;;;;;;;;;33.00;31.00;;;;;30.65;34.30;99224.59;6239335;27;98219;-60
2022/08/30 08:17:39;;;;;;;;;27.00;26.25;;;;;30.70;33.92;99213.25;6237338;27;97438;-56
2022/08/30 08:20:43;;;;;;;;;29.00;28.00;;;;;30.89;33.55;99221.00;6237641;27;97229;-58
2022/08/30 08:23:48;;;;;;;;;22.60;21.60;;;;;30.96;32.90;99226.81;6246002;27;97523;-60
2022/08/30 08:26:51;;;;;;;;;24.20;22.40;;;;;31.09;32.51;99227.66;6258391;27;97126;-59
2022/08/30 08:29:54;;;;;;;;;20.00;17.00;;;;;31.19;32.10;99230.78;6262562;27;97348;-58
2022/08/30 08:32:58;;;;;;;;;30.20;28.00;;;;;31.33;32.41;99230.41;6251361;27;96555;-61
2022/08/30 08:36:03;;;;;;;;;21.00;20.00;;;;;31.46;31.71;99234.81;6243993;27;98083;-60
2022/08/30 08:39:11;;;;;;;;;25.60;24.60;;;;;31.65;32.12;99225.84;6256442;27;97316;-60
2022/08/30 08:42:23;;;;;;;;;27.00;25.60;;;;;31.81;31.28;99229.53;6238455;27;97048;-59
2022/08/30 08:45:48;;;;;;;;;31.20;29.80;;;;;31.83;31.13;99214.03;6237494;27;96662;-59
2022/08/30 08:48:55;;;;;;;;;26.40;25.00;;;;;32.19;30.84;99241.00;6237478;27;97023;-61
2022/08/30 08:55:29;;;;;;;;;17.33;16.33;;;;;32.62;31.44;99208.63;6243988;27;96711;-59
2022/08/30 08:58:42;;;;;;;;;16.50;16.00;;;;;33.01;30.16;99223.59;6241862;27;97069;-64
2022/08/30 09:01:47;;;;;;;;;15.20;13.20;;;;;33.14;29.58;99224.28;6253739;27;97190;-60
2022/08/30 09:04:53;;;;;;;;;15.00;14.00;;;;;33.19;29.76;99204.47;6255913;27;96633;-59
2022/08/30 09:08:02;;;;;;;;;11.80;11.20;;;;;33.42;29.53;99227.78;6262634;27;97444;-61
2022/08/30 09:11:18;;;;;;;;;15.00;14.50;;;;;33.62;30.07;99228.63;6239686;27;98028;-60
2022/08/30 09:14:34;;;;;;;;;13.80;13.00;;;;;33.75;29.03;99225.34;6263671;27;96427;-60
2022/08/30 09:17:52;;;;;;;;;11.25;10.75;;;;;33.83;28.12;99229.09;6263235;27;97732;-60
2022/08/30 09:21:08;;;;;;;;;13.00;13.00;;;;;33.93;28.18;99222.91;6248714;27;97055;-59
2022/08/30 09:24:16;;;;;;;;;9.00;9.00;;;;;34.04;28.01;99215.53;6248149;27;96953;-61
2022/08/30 09:27:31;;;;;;;;;11.00;10.00;;;;;34.09;27.76;99222.81;6246968;27;97528;-60
2022/08/30 09:30:34;;;;;;;;;14.00;14.00;;;;;34.11;28.31;99212.09;6245804;27;98059;-62
2022/08/30 09:33:38;;;;;;;;;14.00;12.00;;;;;34.14;28.51;99212.16;6247549;27;98385;-60
2022/08/30 09:36:43;;;;;;;;;11.00;10.00;;;;;34.16;27.80;99220.19;6248052;27;97241;-60
2022/08/30 09:39:48;;;;;;;;;13.40;13.40;;;;;34.15;27.77;99210.97;6246095;27;97686;-61
2022/08/30 09:43:04;;;;;;;;;12.20;11.80;;;;;34.19;28.01;99213.88;6256401;27;99710;-62
2022/08/30 09:46:11;;;;;;;;;16.60;15.60;;;;;34.19;27.75;99217.47;6247770;27;97094;-64
2022/08/30 09:49:29;;;;;;;;;13.25;13.00;;;;;34.09;28.46;99218.03;6249668;27;97406;-61
2022/08/30 09:52:56;;;;;;;;;22.00;21.00;;;;;33.99;28.54;99201.03;6241517;27;97453;-64
2022/08/30 09:56:07;;;;;;;;;23.20;23.00;;;;;33.96;29.37;99213.00;6235834;27;96815;-61
2022/08/30 09:59:29;;;;;;;;;23.00;22.25;;;;;33.87;28.86;99216.78;6258298;27;99801;-62
2022/08/30 10:02:57;;;;;;;;;14.60;13.60;;;;;33.73;28.58;99202.53;6253643;27;97812;-61
2022/08/30 10:06:10;;;;;;;;;14.40;14.40;;;;;33.56;28.75;99183.38;6243585;27;96804;-58
2022/08/30 10:09:25;;;;;;;;;13.00;13.00;;;;;33.78;29.77;99204.22;6238470;27;97468;-61
2022/08/30 10:12:41;;;;;;;;;13.50;13.50;;;;;33.94;28.99;99199.34;6250647;27;97414;-63
2022/08/30 10:15:51;;;;;;;;;14.00;14.00;;;;;34.09;28.38;99192.88;6242826;27;97018;-60
2022/08/30 10:19:06;;;;;;;;;12.40;12.00;;;;;34.20;28.21;99188.31;6245468;27;98140;-55
2022/08/30 10:22:15;;;;;;;;;13.80;12.80;;;;;34.29;27.35;99197.28;6243493;27;97453;-60
2022/08/30 10:25:23;;;;;;;;;13.00;12.00;;;;;34.38;27.72;99197.03;6260007;27;97060;-60
2022/08/30 10:28:37;;;;;;;;;16.00;16.00;;;;;34.47;28.08;99199.56;6259761;27;96832;-61
2022/08/30 10:31:46;;;;;;;;;19.50;18.00;;;;;34.60;27.67;99192.63;6249769;27;96521;-56
2022/08/30 10:34:54;;;;;;;;;17.00;17.00;;;;;34.83;27.35;99187.84;6259778;27;97475;-55
2022/08/30 10:38:04;;;;;;;;;17.20;16.20;;;;;35.03;26.52;99192.16;6260791;27;97479;-65
2022/08/30 10:41:22;;;;;;;;;17.00;16.33;;;;;35.14;26.23;99186.69;6263452;27;96918;-63
2022/08/30 10:44:31;;;;;;;;;13.00;12.00;;;;;35.18;26.79;99179.19;6256447;27;97315;-59
2022/08/30 10:47:40;;;;;;;;;11.50;11.50;;;;;35.16;26.89;99179.53;6245056;27;96940;-60
2022/08/30 10:50:48;;;;;;;;;12.00;12.00;;;;;35.12;26.29;99186.28;6240935;27;97475;-60
2022/08/30 10:53:56;;;;;;;;;11.60;11.00;;;;;35.05;25.51;99172.16;6248184;27;97083;-60
2022/08/30 10:57:00;;;;;;;;;13.00;12.00;;;;;35.07;26.49;99166.97;6250520;27;96609;-59
2022/08/30 11:00:09;;;;;;;;;15.00;14.00;;;;;35.13;25.95;99154.25;6263517;27;97358;-58
2022/08/30 11:03:38;;;;;;;;;11.00;9.75;;;;;35.30;25.22;99166.94;6265976;27;96514;-60
2022/08/30 11:06:53;;;;;;;;;13.25;13.25;;;;;35.36;25.23;99165.41;6256678;27;96643;-60
2022/08/30 11:10:14;;;;;;;;;14.00;14.00;;;;;35.42;25.63;99166.72;6254708;27;96417;-63
2022/08/30 11:13:22;;;;;;;;;15.00;14.50;;;;;35.54;25.17;99153.22;6265800;27;97462;-57
2022/08/30 11:16:37;;;;;;;;;13.75;13.00;;;;;35.66;25.25;99162.63;6264027;27;98443;-60
2022/08/30 11:19:41;;;;;;;;;13.00;13.00;;;;;35.69;25.50;99150.63;6241894;27;97486;-60
2022/08/30 11:23:16;;;;;;;;;13.00;12.20;;;;;35.76;25.23;99150.72;6249666;27;96694;-61
2022/08/30 11:26:51;;;;;;;;;14.25;14.25;;;;;35.93;26.05;99162.16;6253839;27;97237;-56
2022/08/30 11:29:54;;;;;;;;;11.00;11.00;;;;;36.07;24.95;99157.91;6245685;27;97009;-55
2022/08/30 11:33:02;;;;;;;;;14.00;14.00;;;;;36.04;25.21;99163.06;6243346;27;97739;-61
2022/08/30 11:36:37;;;;;;;;;14.60;14.40;;;;;35.97;25.50;99156.59;6265443;27;96736;-61
2022/08/30 11:39:58;;;;;;;;;16.50;16.00;;;;;35.81;25.70;99148.41;6264846;27;97673;-61
2022/08/30 11:43:41;;;;;;;;;16.00;15.80;;;;;35.78;24.57;99156.75;6253562;27;97501;-58
2022/08/30 11:46:46;;;;;;;;;15.00;15.00;;;;;35.80;24.45;99149.56;6252414;27;96517;-61
2022/08/30 11:50:08;;;;;;;;;17.00;16.60;;;;;35.83;24.15;99140.38;6249848;27;97344;-59
2022/08/30 11:53:25;;;;;;;;;13.40;12.40;;;;;35.89;23.83;99144.47;6252103;27;97120;-57
2022/08/30 11:56:43;;;;;;;;;15.40;15.00;;;;;35.87;24.18;99123.63;6263335;27;96875;-58
2022/08/30 11:59:58;;;;;;;;;13.00;13.00;;;;;36.08;24.78;99131.41;6263498;27;96821;-60
2022/08/30 12:03:04;;;;;;;;;13.00;12.80;;;;;36.09;24.84;99138.66;6241770;27;97335;-60
2022/08/30 12:06:11;;;;;;;;;13.20;13.00;;;;;36.10;25.13;99134.66;6239252;27;97160;-61
2022/08/30 12:10:05;;;;;;;;;13.00;12.00;;;;;36.13;25.48;99134.72;6239556;27;97421;-61
2022/08/30 12:13:09;;;;;;;;;14.00;14.00;;;;;36.23;26.03;99128.41;6237661;27;98005;-58
2022/08/30 12:16:18;;;;;;;;;14.50;14.50;;;;;36.29;25.61;99131.66;6237302;28;96936;-61
2022/08/30 12:19:22;;;;;;;;;12.50;12.50;;;;;36.25;25.45;99116.78;6237572;28;97549;-60
2022/08/30 12:22:29;;;;;;;;;12.00;11.60;;;;;36.20;26.04;99111.53;6248955;27;97482;-60
2022/08/30 12:25:34;;;;;;;;;14.00;14.00;;;;;36.29;26.13;99112.81;6246140;27;97998;-55
2022/08/30 12:28:37;;;;;;;;;14.25;13.25;;;;;36.40;25.48;99115.72;6252400;27;97204;-55
2022/08/30 12:31:47;;;;;;;;;14.00;14.00;;;;;36.30;25.29;99091.97;6245491;27;97224;-61
2022/08/30 12:34:53;;;;;;;;;12.75;12.75;;;;;36.36;25.20;99107.25;6260455;27;99499;-60
2022/08/30 12:38:01;;;;;;;;;13.80;13.80;;;;;36.28;25.63;99104.78;6244775;27;97241;-60
2022/08/30 12:41:05;;;;;;;;;11.20;11.00;;;;;36.08;25.96;99103.34;6255564;27;97428;-59
2022/08/30 12:44:15;;;;;;;;;13.00;12.00;;;;;35.92;25.30;99100.81;6243534;27;96602;-58
2022/08/30 12:47:22;;;;;;;;;12.40;12.40;;;;;35.79;26.24;99089.03;6247176;27;97050;-59
2022/08/30 12:50:30;;;;;;;;;12.40;12.40;;;;;35.44;26.14;99064.19;6249699;27;97314;-58
2022/08/30 12:53:40;;;;;;;;;14.00;14.00;;;;;35.44;27.02;99080.19;6249058;27;96758;-59
2022/08/30 12:56:59;;;;;;;;;13.50;12.50;;;;;35.32;25.43;99081.28;6247914;27;98024;-59
2022/08/30 13:00:26;;;;;;;;;11.00;10.00;;;;;35.22;25.72;99075.53;6249781;27;97959;-59
2022/08/30 13:03:35;;;;;;;;;11.00;11.00;;;;;35.13;25.97;99076.59;6247861;27;97416;-57
2022/08/30 13:06:48;;;;;;;;;13.00;11.00;;;;;34.86;25.83;99038.59;6248150;27;97363;-61
2022/08/30 13:10:01;;;;;;;;;14.00;13.00;;;;;34.92;25.93;99047.47;6254450;27;97486;-60
2022/08/30 13:13:06;;;;;;;;;13.00;13.00;;;;;35.11;26.71;99069.75;6263154;27;97061;-59
2022/08/30 13:16:20;;;;;;;;;15.00;14.00;;;;;35.16;24.96;99064.63;6258316;27;97402;-58
2022/08/30 13:19:35;;;;;;;;;13.00;13.00;;;;;35.25;25.68;99066.34;6253289;27;97417;-59
2022/08/30 13:22:41;;;;;;;;;14.25;13.25;;;;;35.33;25.26;99073.69;6248580;27;96684;-57
2022/08/30 13:25:45;;;;;;;;;12.60;11.60;;;;;35.40;24.49;99062.53;6252475;27;97096;-58
2022/08/30 13:28:54;;;;;;;;;15.40;15.00;;;;;35.42;24.55;99060.97;6246295;27;97197;-56
2022/08/30 13:31:57;;;;;;;;;14.00;14.00;;;;;35.46;24.02;99056.22;6246811;27;97479;-62
2022/08/30 13:35:01;;;;;;;;;13.00;13.00;;;;;35.50;23.73;99045.84;6246158;27;97531;-57
2022/08/30 13:38:04;;;;;;;;;16.00;15.33;;;;;35.54;24.72;99052.28;6243425;27;97431;-56
2022/08/30 13:41:09;;;;;;;;;11.40;11.00;;;;;35.56;24.37;99055.53;6241522;27;97662;-56
2022/08/30 13:44:12;;;;;;;;;11.60;11.40;;;;;35.54;24.43;99052.28;6244934;27;97041;-57
2022/08/30 13:47:19;;;;;;;;;11.00;11.00;;;;;35.49;24.36;99049.81;6245258;27;97155;-58
2022/08/30 13:50:39;;;;;;;;;10.00;9.00;;;;;35.50;25.10;99040.22;6246341;27;97506;-54
2022/08/30 13:53:42;;;;;;;;;10.60;10.20;;;;;35.55;26.11;99044.69;6244979;27;97490;-58
2022/08/30 13:57:02;;;;;;;;;11.75;11.75;;;;;35.51;23.66;99039.03;6246759;27;97529;-60
2022/08/30 14:00:09;;;;;;;;;14.00;14.00;;;;;35.49;24.90;99040.59;6244281;27;96801;-56
2022/08/30 14:03:15;;;;;;;;;11.00;11.00;;;;;35.42;23.67;99032.94;6244858;27;96997;-64
2022/08/30 14:06:19;;;;;;;;;16.00;15.00;;;;;35.36;24.07;99037.25;6246373;27;97703;-57
2022/08/30 14:09:36;;;;;;;;;11.25;11.25;;;;;34.97;24.01;98980.72;6244470;27;96622;-64
2022/08/30 14:12:41;;;;;;;;;14.00;14.00;;;;;35.18;23.47;99027.84;6243916;27;96662;-60
2022/08/30 14:16:07;;;;;;;;;12.25;11.25;;;;;35.18;24.27;99039.88;6246651;27;97636;-56
2022/08/30 14:19:31;;;;;;;;;12.50;12.50;;;;;35.05;25.07;99035.66;6248452;27;97337;-64
2022/08/30 14:22:34;;;;;;;;;13.50;12.00;;;;;34.94;25.62;99026.31;6242631;27;97080;-57
2022/08/30 14:25:38;;;;;;;;;11.00;11.00;;;;;34.93;26.36;99030.31;6236927;27;96794;-58
2022/08/30 14:28:44;;;;;;;;;11.00;11.00;;;;;34.87;25.93;99014.19;6245336;27;97050;-59